Time;durP1;ratioP1;P1;durP2;ratioP2;P2;SDS_P1;SDS_P2;PMS_P1;PMS_P2;Temp;Humidity;BMP_temperature;BMP_pressure;BME280_temperature;BME280_humidity;BME280_pressure;Samples;Min_cycle;Max_cycle;Signal;HPM_P1;HPM_P2
2022/10/12 00:01:58;;;;;;;31.60;14.93;;;;;;;9.03;70.53;101904.09;5013462;28;20049;-81
2022/10/12 00:04:29;;;;;;;25.70;13.90;;;;;;;8.94;70.89;101907.88;4998781;28;20061;-81
2022/10/12 00:07:02;;;;;;;30.63;13.80;;;;;;;8.90;71.17;101910.66;4998727;28;20046;-82
2022/10/12 00:09:31;;;;;;;29.42;13.48;;;;;;;8.91;72.12;101910.59;5003450;28;20057;-82
2022/10/12 00:12:06;;;;;;;25.20;13.35;;;;;;;8.89;71.81;101912.41;4992510;28;20137;-80
2022/10/12 00:14:36;;;;;;;27.75;14.13;;;;;;;8.84;71.59;101907.31;4991504;28;20053;-79
2022/10/12 00:17:04;;;;;;;25.08;11.73;;;;;;;8.81;72.21;101914.41;5003813;28;20034;-83
2022/10/12 00:19:34;;;;;;;24.65;12.38;;;;;;;8.81;72.27;101914.41;4984236;28;20084;-83
2022/10/12 00:22:02;;;;;;;33.40;13.52;;;;;;;8.84;71.93;101916.97;4981785;28;20081;-81
2022/10/12 00:24:30;;;;;;;29.70;13.85;;;;;;;8.80;71.76;101921.44;4984745;28;20052;-79
2022/10/12 00:26:58;;;;;;;24.95;13.00;;;;;;;8.75;71.96;101917.25;4966806;28;20064;-78
2022/10/12 00:29:25;;;;;;;27.10;12.95;;;;;;;8.72;72.92;101912.06;4996722;28;20048;-80
2022/10/12 00:31:57;;;;;;;29.42;13.32;;;;;;;8.71;72.31;101913.00;4993825;28;20516;-81
2022/10/12 00:34:27;;;;;;;29.70;13.95;;;;;;;8.65;73.16;101914.03;4996341;28;20084;-80
2022/10/12 00:36:57;;;;;;;32.08;13.70;;;;;;;8.61;73.31;101915.88;4997873;28;20041;-80
2022/10/12 00:39:30;;;;;;;29.58;12.95;;;;;;;8.58;73.32;101925.63;5001104;28;20054;-80
2022/10/12 00:42:00;;;;;;;26.55;13.02;;;;;;;8.56;73.24;101917.78;4994860;28;20053;-81
2022/10/12 00:44:48;;;;;;;23.90;13.32;;;;;;;8.57;73.25;101914.25;4982250;28;20050;-82
2022/10/12 00:47:21;;;;;;;;;;;;;;;8.59;72.55;101908.94;4995056;28;20096;-81
2022/10/12 00:50:13;;;;;;;28.77;12.55;;;;;;;8.61;72.72;101925.53;4995849;28;19925;-82
2022/10/12 00:52:51;;;;;;;34.38;13.75;;;;;;;8.56;72.48;101920.41;4976351;28;20054;-80
2022/10/12 00:55:21;;;;;;;21.27;11.07;;;;;;;8.57;73.01;101922.13;4978172;28;20050;-81
2022/10/12 00:57:54;;;;;;;22.48;11.38;;;;;;;8.62;72.41;101925.47;5009930;28;20045;-82
2022/10/12 01:00:32;;;;;;;20.75;10.85;;;;;;;8.63;73.03;101923.72;4978409;28;20061;-81
2022/10/12 01:03:01;;;;;;;25.60;12.40;;;;;;;8.58;72.87;101920.38;4990222;28;20033;-81
2022/10/12 01:05:32;;;;;;;25.48;11.60;;;;;;;8.55;72.87;101921.31;4991403;28;20058;-81
2022/10/12 01:08:01;;;;;;;22.92;11.90;;;;;;;8.52;72.54;101929.28;4974919;28;20046;-80
2022/10/12 01:10:32;;;;;;;21.13;11.13;;;;;;;8.50;73.46;101924.97;4996332;28;20050;-84
2022/10/12 01:13:02;;;;;;;25.58;11.07;;;;;;;8.43;72.87;101918.22;4986970;28;20050;-80
2022/10/12 01:15:38;;;;;;;21.40;10.75;;;;;;;8.41;73.61;101920.00;4999484;28;20084;-83
2022/10/12 01:18:18;;;;;;;24.05;11.23;;;;;;;8.37;74.68;101921.84;4980492;28;20064;-83
2022/10/12 01:21:07;;;;;;;19.60;11.13;;;;;;;8.33;74.01;101928.06;4995469;28;20065;-82
2022/10/12 01:23:59;;;;;;;30.92;12.32;;;;;;;8.31;74.41;101922.00;4994248;28;20054;-80
2022/10/12 01:26:56;;;;;;;19.58;10.75;;;;;;;8.34;74.26;101927.16;4996895;28;20073;-81
2022/10/12 01:29:54;;;;;;;23.33;10.68;;;;;;;8.32;74.18;101919.31;5013986;28;20049;-80
2022/10/12 01:32:42;;;;;;;23.15;10.90;;;;;;;8.32;74.05;101929.81;5009030;28;20034;-81
2022/10/12 01:35:22;;;;;;;26.83;10.70;;;;;;;8.24;74.37;101925.69;4983105;28;20121;-82
2022/10/12 01:37:59;;;;;;;21.25;10.52;;;;;;;8.22;74.59;101928.38;5021188;28;20334;-82
2022/10/12 01:40:38;;;;;;;20.88;10.32;;;;;;;8.21;74.79;101941.53;4983759;28;20058;-81
2022/10/12 01:43:06;;;;;;;26.40;11.82;;;;;;;8.15;74.63;101933.81;4981202;28;20058;-81
2022/10/12 01:45:36;;;;;;;21.83;11.10;;;;;;;8.13;74.81;101932.09;4995364;28;20072;-82
2022/10/12 01:48:08;;;;;;;23.65;11.15;;;;;;;8.12;75.47;101937.41;5001308;28;20081;-81
2022/10/12 01:50:52;;;;;;;18.35;10.80;;;;;;;8.18;74.78;101933.75;5016347;28;20064;-81
2022/10/12 01:53:52;;;;;;;25.73;11.02;;;;;;;8.15;74.95;101931.19;4978655;28;20492;-83
2022/10/12 01:56:42;;;;;;;18.92;10.75;;;;;;;8.15;75.29;101928.56;4932692;28;20049;-81
2022/10/12 01:59:39;;;;;;;20.85;11.02;;;;;;;8.11;75.75;101933.94;4992553;28;20052;-81
2022/10/12 02:02:10;;;;;;;;;;;;;;;8.06;74.89;101934.94;5001290;28;20057;-82
2022/10/12 02:04:46;;;;;;;20.83;9.65;;;;;;;8.07;74.68;101934.91;4996863;28;19956;-80
2022/10/12 02:07:33;;;;;;;18.27;10.20;;;;;;;8.09;74.75;101932.22;5019995;28;20050;-79
2022/10/12 02:10:20;;;;;;;20.85;10.13;;;;;;;8.04;74.96;101927.13;5012782;28;20493;-81
2022/10/12 02:12:53;;;;;;;18.60;10.70;;;;;;;8.04;75.25;101927.13;4972051;28;20052;-81
2022/10/12 02:15:22;;;;;;;22.33;10.15;;;;;;;8.01;75.69;101924.56;4965239;28;20105;-82
2022/10/12 02:17:52;;;;;;;23.38;10.43;;;;;;;8.02;74.70;101925.47;4998184;28;20552;-82
2022/10/12 02:20:25;;;;;;;21.25;10.43;;;;;;;7.97;75.54;101920.34;4978226;28;20485;-81
2022/10/12 02:22:57;;;;;;;21.50;9.88;;;;;;;7.92;75.57;101922.19;5009406;28;20038;-82
2022/10/12 02:25:31;;;;;;;20.95;10.20;;;;;;;7.92;75.24;101913.47;4981069;28;20049;-81
2022/10/12 02:28:14;;;;;;;17.63;9.95;;;;;;;7.93;75.94;101918.69;4972479;28;20050;-82
2022/10/12 02:30:54;;;;;;;19.75;10.32;;;;;;;7.94;75.65;101907.31;4995486;28;20039;-82
2022/10/12 02:33:36;;;;;;;26.33;11.15;;;;;;;7.95;75.23;101913.41;5017660;28;20130;-80
2022/10/12 02:36:16;;;;;;;28.13;11.85;;;;;;;7.91;75.34;101910.00;5008408;28;20525;-82
2022/10/12 02:39:09;;;;;;;19.85;11.38;;;;;;;7.90;75.46;101916.16;5002225;28;20427;-80
2022/10/12 02:41:44;;;;;;;19.13;10.55;;;;;;;7.87;75.94;101914.47;4982976;28;20050;-80
2022/10/12 02:44:15;;;;;;;19.58;10.20;;;;;;;7.89;75.56;101903.94;4995063;28;20061;-82
2022/10/12 02:46:48;;;;;;;24.05;12.07;;;;;;;7.88;75.42;101904.88;5017879;28;20041;-82
2022/10/12 02:49:25;;;;;;;22.17;10.55;;;;;;;7.85;75.17;101899.69;5010466;28;20050;-80
2022/10/12 02:52:07;;;;;;;20.67;10.95;;;;;;;7.84;75.87;101896.22;5028756;28;20767;-81
2022/10/12 02:54:37;;;;;;;25.00;11.88;;;;;;;7.85;75.56;101902.31;4992409;28;20065;-80
2022/10/12 02:57:05;;;;;;;27.15;11.80;;;;;;;7.87;76.11;101897.88;4992707;28;20136;-80
2022/10/12 02:59:35;;;;;;;22.80;10.63;;;;;;;7.81;76.23;101895.44;4977737;28;20049;-81
2022/10/12 03:02:03;;;;;;;21.65;11.40;;;;;;;7.79;76.19;101897.22;5025399;28;20061;-80
2022/10/12 03:04:37;;;;;;;20.20;10.23;;;;;;;7.80;75.43;101896.34;4995871;28;20136;-81
2022/10/12 03:07:08;;;;;;;17.65;11.27;;;;;;;7.79;76.03;101905.97;4995750;28;20054;-81
2022/10/12 03:09:48;;;;;;;22.85;11.07;;;;;;;7.74;76.52;101896.47;4993158;28;20148;-81
2022/10/12 03:12:19;;;;;;;24.10;11.15;;;;;;;7.70;75.87;101894.84;4982847;28;20058;-81
2022/10/12 03:14:47;;;;;;;22.05;11.13;;;;;;;7.71;76.31;101905.31;5010900;28;20297;-80
2022/10/12 03:17:26;;;;;;;22.75;11.18;;;;;;;7.68;76.41;101897.50;4966717;28;20503;-81
2022/10/12 03:19:57;;;;;;;19.35;9.50;;;;;;;7.65;76.62;101899.34;4985701;28;20075;-82
2022/10/12 03:22:25;;;;;;;18.80;11.13;;;;;;;7.65;77.11;101900.22;4995291;28;20060;-82
2022/10/12 03:24:59;;;;;;;18.50;10.25;;;;;;;7.62;76.30;101889.81;4951893;28;20608;-82
2022/10/12 03:27:29;;;;;;;18.88;8.95;;;;;;;7.60;77.26;101892.47;5012644;28;20129;-83
2022/10/12 03:30:02;;;;;;;19.52;8.95;;;;;;;7.58;77.07;101898.66;4960145;28;20188;-81
2022/10/12 03:32:30;;;;;;;18.33;9.75;;;;;;;7.53;77.34;101897.94;4998912;28;20116;-82
2022/10/12 03:34:59;;;;;;;18.88;9.05;;;;;;;7.54;77.57;101903.13;4981460;28;20045;-81
2022/10/12 03:37:32;;;;;;;20.83;11.02;;;;;;;7.54;77.53;101892.63;4971357;28;20054;-81
2022/10/12 03:40:01;;;;;;;15.70;8.73;;;;;;;7.53;77.09;101890.94;4999881;28;20531;-80
2022/10/12 03:42:34;;;;;;;17.95;10.45;;;;;;;7.55;77.46;101883.00;4977606;28;20046;-81
2022/10/12 03:45:01;;;;;;;20.15;9.32;;;;;;;7.51;77.55;101889.22;5014461;28;20114;-80
2022/10/12 03:47:38;;;;;;;15.77;8.27;;;;;;;7.49;77.49;101894.53;4987447;28;20050;-81
2022/10/12 03:50:10;;;;;;;20.73;9.73;;;;;;;7.51;77.21;101890.09;5019492;28;20447;-81
2022/10/12 03:52:37;;;;;;;18.65;9.25;;;;;;;7.49;77.75;101891.91;5011152;28;20046;-80
2022/10/12 03:55:05;;;;;;;20.83;9.52;;;;;;;7.50;77.19;101898.00;4999191;28;20348;-80
2022/10/12 03:57:34;;;;;;;21.02;10.63;;;;;;;7.49;77.15;101886.66;4993487;28;20099;-80
2022/10/12 04:00:05;;;;;;;17.83;9.93;;;;;;;7.43;77.82;101892.06;4996678;28;20050;-80
2022/10/12 04:02:35;;;;;;;18.10;9.48;;;;;;;7.44;77.20;101891.16;4964656;28;20045;-83
2022/10/12 04:05:08;;;;;;;17.20;8.57;;;;;;;7.45;77.22;101908.59;5006889;28;20057;-82
2022/10/12 04:07:36;;;;;;;22.58;10.35;;;;;;;7.46;77.50;101898.97;4995559;28;20538;-83
2022/10/12 04:10:06;;;;;;;19.35;10.77;;;;;;;7.47;77.56;101898.91;4990687;28;20164;-82
2022/10/12 04:12:35;;;;;;;17.38;9.40;;;;;;;7.48;77.55;101897.19;5006228;28;20054;-82
2022/10/12 04:15:16;;;;;;;14.20;8.57;;;;;;;7.46;77.24;101896.34;4991042;28;20050;-84
2022/10/12 04:17:48;;;;;;;16.48;8.10;;;;;;;7.46;77.38;101893.72;4980131;28;20041;-80
2022/10/12 04:20:19;;;;;;;20.88;8.38;;;;;;;7.36;78.02;101903.59;5008129;28;20070;-81
2022/10/12 04:22:55;;;;;;;17.58;9.10;;;;;;;7.31;78.43;101901.09;5008528;28;20069;-80
2022/10/12 04:25:24;;;;;;;17.77;9.85;;;;;;;7.27;78.41;101898.59;4973740;28;20049;-80
2022/10/12 04:28:01;;;;;;;17.63;8.80;;;;;;;7.25;78.71;101898.63;5001774;28;20040;-81
2022/10/12 04:30:32;;;;;;;15.70;9.48;;;;;;;7.30;77.89;101901.13;4988587;28;20046;-83
2022/10/12 04:33:06;;;;;;;22.00;10.15;;;;;;;7.32;78.20;101897.56;4972787;28;20041;-79
2022/10/12 04:35:39;;;;;;;19.20;8.75;;;;;;;7.30;77.46;101895.91;5005122;28;20489;-82
2022/10/12 04:38:08;;;;;;;17.50;9.65;;;;;;;7.25;78.05;101900.34;4988755;28;20674;-78
2022/10/12 04:40:38;;;;;;;16.17;8.27;;;;;;;7.24;77.70;101899.50;4958118;28;20057;-81
2022/10/12 04:43:09;;;;;;;22.05;10.35;;;;;;;7.24;77.98;101899.50;5007286;28;20152;-81
2022/10/12 04:45:41;;;;;;;18.38;7.95;;;;;;;7.19;78.21;101895.28;4977802;28;20520;-82
2022/10/12 04:48:10;;;;;;;26.15;10.35;;;;;;;7.17;78.47;101900.56;4998359;28;20503;-82
2022/10/12 04:50:46;;;;;;;21.63;9.52;;;;;;;7.16;78.11;101905.81;4996208;28;20461;-82
2022/10/12 04:53:20;;;;;;;16.88;8.85;;;;;;;7.13;78.23;101905.91;4980395;28;20191;-80
2022/10/12 04:55:49;;;;;;;18.77;9.00;;;;;;;7.12;78.36;101902.44;4971900;28;20042;-82
2022/10/12 04:58:20;;;;;;;14.15;7.57;;;;;;;7.15;78.23;101910.19;4977755;28;20149;-79
2022/10/12 05:00:47;;;;;;;20.50;9.60;;;;;;;7.11;78.47;101908.56;4996634;28;20061;-79
2022/10/12 05:03:18;;;;;;;14.02;8.80;;;;;;;7.08;78.89;101909.50;4994006;28;20473;-82
2022/10/12 05:05:49;;;;;;;20.85;9.00;;;;;;;7.05;78.65;101913.94;4990245;28;20095;-81
2022/10/12 05:08:20;;;;;;;23.23;9.02;;;;;;;7.09;78.19;101916.47;4997180;28;20058;-82
2022/10/12 05:10:48;;;;;;;15.93;8.15;;;;;;;7.08;78.54;101912.13;5008495;28;20038;-80
2022/10/12 05:13:19;;;;;;;18.67;7.47;;;;;;;7.10;78.66;101915.56;4993647;28;20120;-81
2022/10/12 05:15:48;;;;;;;16.55;7.82;;;;;;;7.12;78.60;101914.69;4946404;28;20077;-80
2022/10/12 05:18:23;;;;;;;19.38;9.02;;;;;;;7.07;78.97;101910.41;4977694;28;20046;-82
2022/10/12 05:20:59;;;;;;;15.38;7.55;;;;;;;7.05;79.18;101909.56;4976143;28;20049;-81
2022/10/12 05:23:33;;;;;;;19.35;8.63;;;;;;;7.02;78.71;101908.78;4984247;28;20061;-80
2022/10/12 05:26:04;;;;;;;15.63;8.68;;;;;;;6.96;79.48;101911.53;4985348;28;20076;-81
2022/10/12 05:28:33;;;;;;;18.70;8.70;;;;;;;6.95;79.14;101920.31;4977139;28;20049;-80
2022/10/12 05:31:07;;;;;;;14.18;7.57;;;;;;;6.94;79.50;101913.34;4998349;28;20151;-80
2022/10/12 05:33:36;;;;;;;19.30;8.27;;;;;;;6.95;79.56;101918.53;4972443;28;20042;-79
2022/10/12 05:36:08;;;;;;;16.50;8.30;;;;;;;6.87;79.95;101920.47;4994429;28;20054;-82
2022/10/12 05:38:37;;;;;;;19.48;7.93;;;;;;;6.82;80.03;101917.09;4985139;28;20073;-82
2022/10/12 05:41:08;;;;;;;13.75;7.43;;;;;;;6.85;79.59;101914.44;4993631;28;20054;-82
2022/10/12 05:47:58;;;;;;;14.10;7.22;;;;;;;6.97;80.14;101924.59;5016838;23;20042;-79
2022/10/12 05:50:31;;;;;;;15.48;7.43;;;;;;;6.96;79.68;101917.63;4983418;28;20058;-79
2022/10/12 05:53:00;;;;;;;14.43;7.90;;;;;;;6.96;79.88;101917.63;4979312;28;20086;-80
2022/10/12 05:55:27;;;;;;;15.95;8.27;;;;;;;6.97;80.11;101921.97;4975535;28;20050;-82
2022/10/12 05:57:55;;;;;;;15.32;7.85;;;;;;;6.89;80.48;101912.56;4962490;28;20046;-82
2022/10/12 06:00:22;;;;;;;18.80;8.93;;;;;;;6.88;79.82;101911.72;4968913;28;20598;-82
2022/10/12 06:02:51;;;;;;;18.73;8.07;;;;;;;6.83;80.54;101917.06;4974665;28;20120;-82
2022/10/12 06:05:19;;;;;;;15.02;7.25;;;;;;;6.83;80.80;101924.06;4994759;28;20265;-80
2022/10/12 06:07:49;;;;;;;21.23;8.38;;;;;;;6.84;80.20;101912.69;4986898;28;20041;-79
2022/10/12 06:10:16;;;;;;;18.23;7.78;;;;;;;6.78;81.31;101920.69;4976740;28;20050;-83
2022/10/12 06:12:43;;;;;;;15.73;7.95;;;;;;;6.75;81.11;101924.22;4974532;28;20046;-81
2022/10/12 06:15:16;;;;;;;20.05;7.88;;;;;;;6.81;80.79;101931.09;5003158;28;20030;-80
2022/10/12 06:17:46;;;;;;;18.63;7.38;;;;;;;6.88;80.69;101930.03;4976908;28;20042;-80
2022/10/12 06:20:15;;;;;;;18.35;7.32;;;;;;;6.93;80.51;101928.16;4964905;28;20317;-81
2022/10/12 06:22:44;;;;;;;13.50;7.70;;;;;;;6.93;80.51;101936.03;4984412;28;20046;-81
2022/10/12 06:25:11;;;;;;;18.83;7.90;;;;;;;6.92;80.80;101931.69;4986061;28;20092;-81
2022/10/12 06:27:40;;;;;;;17.42;7.30;;;;;;;6.99;80.41;101935.06;4967053;28;20049;-82
2022/10/12 06:30:08;;;;;;;14.05;6.68;;;;;;;7.04;80.24;101941.03;4980774;28;20047;-80
2022/10/12 06:32:35;;;;;;;16.55;7.38;;;;;;;7.05;80.11;101940.13;5004269;28;20049;-80
2022/10/12 06:35:05;;;;;;;14.45;6.85;;;;;;;7.07;79.98;101941.84;4975892;28;20069;-82
2022/10/12 06:37:33;;;;;;;19.13;6.38;;;;;;;7.12;79.83;101938.25;5012504;28;20528;-81
2022/10/12 06:40:17;;;;;;;18.98;6.78;;;;;;;7.15;79.63;101944.25;4962910;28;20045;-81
2022/10/12 06:42:45;;;;;;;22.85;7.05;;;;;;;7.19;79.76;101939.81;4995005;28;20046;-81
2022/10/12 06:45:13;;;;;;;17.05;7.55;;;;;;;7.20;79.75;101941.53;4976571;28;20396;-83
2022/10/12 06:47:42;;;;;;;16.73;7.20;;;;;;;7.20;79.96;101947.63;4999715;28;20050;-80
2022/10/12 06:50:11;;;;;;;18.17;7.80;;;;;;;7.24;79.18;101940.56;4977606;28;20045;-81
2022/10/12 06:52:39;;;;;;;19.17;7.15;;;;;;;7.32;79.76;101946.47;4978257;28;20049;-80
2022/10/12 06:55:09;;;;;;;23.23;7.80;;;;;;;7.36;78.98;101942.88;4986269;28;20056;-80
2022/10/12 06:57:36;;;;;;;17.90;8.00;;;;;;;7.46;79.08;101948.75;4960689;28;20489;-81
2022/10/12 07:00:06;;;;;;;14.85;7.22;;;;;;;7.52;78.95;101945.97;4955803;28;20072;-80
2022/10/12 07:02:34;;;;;;;16.25;7.20;;;;;;;7.57;78.64;101944.97;4957540;28;20065;-82
2022/10/12 07:05:01;;;;;;;18.98;6.75;;;;;;;7.64;78.79;101945.66;4991138;28;20516;-83
2022/10/12 07:07:32;;;;;;;22.17;6.80;;;;;;;7.66;78.42;101938.66;4982614;28;20056;-84
2022/10/12 07:10:01;;;;;;;13.35;6.72;;;;;;;7.73;78.60;101945.44;4991387;28;20069;-84
2022/10/12 07:12:28;;;;;;;23.20;6.93;;;;;;;7.80;78.53;101946.16;4971486;28;20053;-80
2022/10/12 07:14:56;;;;;;;19.58;6.90;;;;;;;7.83;78.69;101946.03;4973861;28;20045;-83
2022/10/12 07:17:24;;;;;;;16.00;6.75;;;;;;;7.89;77.71;101951.16;4971111;28;20038;-83
2022/10/12 07:19:52;;;;;;;19.80;6.88;;;;;;;7.95;78.13;101953.59;4992852;28;20071;-82
2022/10/12 07:22:19;;;;;;;21.70;6.85;;;;;;;8.02;77.73;101952.53;4971281;28;20042;-84
2022/10/12 07:24:47;;;;;;;16.42;6.50;;;;;;;8.09;77.64;101953.22;4991500;28;20046;-80
2022/10/12 07:27:15;;;;;;;19.77;6.32;;;;;;;8.17;77.42;101958.25;4990035;28;20061;-82
2022/10/12 07:29:43;;;;;;;15.20;5.70;;;;;;;8.24;77.29;101952.81;4972723;28;20050;-79
2022/10/12 07:32:10;;;;;;;14.48;6.25;;;;;;;8.29;77.45;101956.16;4957812;28;20045;-82
2022/10/12 07:34:38;;;;;;;19.80;6.53;;;;;;;8.36;77.17;101952.47;4971912;28;20100;-81
2022/10/12 07:37:06;;;;;;;14.77;6.85;;;;;;;8.43;76.78;101949.69;4987804;28;20350;-82
2022/10/12 07:39:33;;;;;;;18.98;7.03;;;;;;;8.50;77.06;101952.06;4969802;28;20069;-85
2022/10/12 07:42:04;;;;;;;17.10;6.65;;;;;;;8.57;76.16;101956.25;4990381;28;20069;-80
2022/10/12 07:44:31;;;;;;;21.63;7.15;;;;;;;8.62;76.06;101959.59;4975015;28;20408;-82
2022/10/12 07:47:02;;;;;;;17.95;6.43;;;;;;;8.72;75.33;101954.06;4973159;28;20045;-82
2022/10/12 07:49:29;;;;;;;23.33;7.70;;;;;;;8.78;75.61;101956.50;4973557;28;20058;-81
2022/10/12 07:51:56;;;;;;;20.85;7.80;;;;;;;8.86;75.36;101955.38;4963947;28;21023;-81
2022/10/12 07:54:24;;;;;;;16.05;6.28;;;;;;;8.95;75.78;101950.75;4962660;28;20045;-81
2022/10/12 07:56:56;;;;;;;15.88;7.07;;;;;;;9.03;75.68;101952.22;4997753;28;20038;-81
2022/10/12 07:59:25;;;;;;;13.93;5.75;;;;;;;9.09;75.50;101952.03;4967174;28;20511;-81
2022/10/12 08:01:54;;;;;;;23.45;6.90;;;;;;;9.17;75.48;101949.16;4987995;28;20048;-81
2022/10/12 08:04:21;;;;;;;19.80;6.63;;;;;;;9.24;75.18;101953.34;4966694;28;20385;-81
2022/10/12 08:06:50;;;;;;;18.65;6.15;;;;;;;9.30;75.13;101950.50;4984919;28;20050;-81
2022/10/12 08:09:17;;;;;;;19.17;5.93;;;;;;;9.40;76.68;101953.69;4997360;28;20179;-81
2022/10/12 08:11:47;;;;;;;24.13;6.65;;;;;;;9.49;75.79;101949.88;4974271;28;20121;-79
2022/10/12 08:14:16;;;;;;;19.13;6.65;;;;;;;9.56;76.04;101951.41;4986190;28;20060;-81
2022/10/12 08:16:43;;;;;;;14.23;5.10;;;;;;;9.62;75.41;101948.56;4956183;28;20061;-81
2022/10/12 08:19:10;;;;;;;19.52;5.78;;;;;;;9.71;75.14;101952.66;4985075;28;20145;-81
2022/10/12 08:21:38;;;;;;;16.85;4.93;;;;;;;9.79;75.87;101956.75;4971374;28;20405;-80
2022/10/12 08:24:08;;;;;;;25.52;5.85;;;;;;;9.88;75.49;101955.56;4946144;28;20046;-81
2022/10/12 08:26:35;;;;;;;19.13;5.35;;;;;;;9.96;75.58;101955.31;4978154;28;20149;-83
2022/10/12 08:29:03;;;;;;;15.38;5.25;;;;;;;10.07;74.87;101956.63;4970201;28;20584;-81
2022/10/12 08:31:32;;;;;;;21.02;6.15;;;;;;;10.15;75.14;101954.59;4972403;28;20053;-81
2022/10/12 08:34:00;;;;;;;18.45;5.38;;;;;;;10.22;75.17;101944.72;4958555;28;20446;-81
2022/10/12 08:36:29;;;;;;;15.23;4.72;;;;;;;10.33;75.05;101953.09;4973048;28;20038;-81
2022/10/12 08:38:57;;;;;;;18.25;5.85;;;;;;;10.41;74.65;101955.47;4972314;28;20104;-81
2022/10/12 08:41:42;;;;;;;18.65;5.65;;;;;;;10.50;74.57;101949.84;4976545;28;20045;-82
2022/10/12 08:44:31;;;;;;;23.98;6.47;;;;;;;10.58;74.38;101953.06;4973982;28;20111;-81
2022/10/12 08:47:11;;;;;;;14.38;4.70;;;;;;;10.65;74.26;101948.41;4992882;28;20034;-81
2022/10/12 08:49:39;;;;;;;15.88;5.68;;;;;;;10.71;74.02;101953.44;4986143;28;20499;-81
2022/10/12 08:52:17;;;;;;;21.92;5.65;;;;;;;10.77;73.87;101955.00;4969989;28;20058;-82
2022/10/12 08:54:44;;;;;;;16.73;5.18;;;;;;;10.86;73.33;101952.00;4955475;28;20644;-82
2022/10/12 08:57:16;;;;;;;23.13;6.28;;;;;;;10.95;73.22;101954.28;4973181;28;20382;-81
2022/10/12 08:59:44;;;;;;;15.63;5.35;;;;;;;11.03;73.22;101946.94;4984560;28;20060;-81
2022/10/12 09:02:13;;;;;;;13.02;4.43;;;;;;;11.08;72.82;101946.75;4970302;28;20068;-81
2022/10/12 09:04:57;;;;;;;12.45;4.32;;;;;;;11.15;73.01;101943.78;4984979;28;20133;-82
2022/10/12 09:07:29;;;;;;;20.95;5.60;;;;;;;11.22;72.53;101940.91;4985483;28;20046;-81
2022/10/12 09:10:32;;;;;;;21.83;5.65;;;;;;;11.33;72.71;101938.69;4977208;28;20065;-81
2022/10/12 09:13:38;;;;;;;19.67;5.35;;;;;;;11.44;71.96;101940.88;4969472;28;20042;-81
2022/10/12 09:16:20;;;;;;;13.60;4.95;;;;;;;11.51;71.81;101934.44;4951278;28;20300;-82
2022/10/12 09:18:52;;;;;;;14.77;4.60;;;;;;;11.57;70.97;101942.09;4984017;28;20494;-80
2022/10/12 09:21:21;;;;;;;15.38;5.18;;;;;;;11.64;71.01;101938.28;4954140;28;20045;-81
2022/10/12 09:23:49;;;;;;;18.95;5.15;;;;;;;11.72;71.27;101935.31;4988425;28;20405;-82
2022/10/12 09:26:44;;;;;;;19.00;5.03;;;;;;;11.84;71.12;101932.16;4982610;28;20070;-82
2022/10/12 09:29:26;;;;;;;13.10;5.07;;;;;;;11.97;70.65;101937.78;5002576;28;20058;-81
2022/10/12 09:32:19;;;;;;;13.05;4.68;;;;;;;12.06;70.62;101932.09;4980138;28;20050;-81
2022/10/12 09:34:47;;;;;;;13.00;5.07;;;;;;;12.13;70.40;101937.03;4958446;28;20053;-81
2022/10/12 09:37:20;;;;;;;12.95;4.30;;;;;;;12.24;70.06;101935.69;4950567;28;20094;-81
2022/10/12 09:40:02;;;;;;;10.80;4.00;;;;;;;12.34;70.04;101929.09;4959006;28;20058;-82
2022/10/12 09:42:31;;;;;;;20.17;4.82;;;;;;;12.42;69.76;101929.56;4992887;28;20081;-82
2022/10/12 09:45:17;;;;;;;16.95;4.55;;;;;;;12.52;69.21;101922.06;4973773;28;20047;-81
2022/10/12 09:48:10;;;;;;;17.00;4.43;;;;;;;12.62;67.93;101926.03;4978820;28;20053;-81
2022/10/12 09:50:42;;;;;;;13.45;3.40;;;;;;;12.70;67.86;101918.59;4993546;28;20045;-80
2022/10/12 09:53:22;;;;;;;8.35;3.78;;;;;;;12.78;68.07;101919.06;5000901;28;20038;-84
2022/10/12 09:55:56;;;;;;;17.20;3.63;;;;;;;12.89;67.63;101918.56;4953187;28;20042;-82
2022/10/12 09:58:28;;;;;;;11.73;3.25;;;;;;;13.00;67.27;101918.03;4950318;28;20065;-81
2022/10/12 10:01:18;;;;;;;11.45;3.88;;;;;;;13.09;65.76;101920.25;4974424;28;20050;-80
2022/10/12 10:03:48;;;;;;;17.20;4.95;;;;;;;13.18;66.25;101923.28;4969224;28;20208;-82
2022/10/12 10:06:21;;;;;;;14.00;3.25;;;;;;;13.22;65.41;101925.78;4940116;28;20054;-84
2022/10/12 10:08:48;;;;;;;14.05;3.30;;;;;;;13.29;64.83;101922.81;4965996;28;20058;-81
2022/10/12 10:11:27;;;;;;;13.40;3.00;;;;;;;13.37;63.93;101923.28;4956814;28;20057;-83
2022/10/12 10:14:19;;;;;;;17.05;3.75;;;;;;;13.51;63.35;101927.00;4964792;28;20559;-81
2022/10/12 10:16:51;;;;;;;13.18;3.17;;;;;;;13.63;62.95;101913.16;4960722;28;20058;-82
2022/10/12 10:19:20;;;;;;;13.53;3.23;;;;;;;13.62;62.27;101909.66;4962013;28;20050;-81
2022/10/12 10:21:48;;;;;;;8.55;2.78;;;;;;;13.72;62.61;101907.41;4944654;28;20076;-81
2022/10/12 10:24:29;;;;;;;10.00;2.90;;;;;;;13.84;62.28;101914.72;4953153;28;20582;-81
2022/10/12 10:27:03;;;;;;;12.75;3.08;;;;;;;14.00;60.27;101917.41;4979457;28;20050;-81
2022/10/12 10:29:38;;;;;;;13.65;3.30;;;;;;;14.10;60.77;101913.34;4973486;28;20825;-80
2022/10/12 10:32:27;;;;;;;13.88;3.65;;;;;;;14.18;59.76;101897.91;4976154;28;20060;-80
2022/10/12 10:35:03;;;;;;;10.40;3.00;;;;;;;14.34;60.25;101905.00;4993269;28;20445;-81
2022/10/12 10:37:34;;;;;;;9.68;2.55;;;;;;;14.48;60.01;101905.16;4990625;28;20046;-82
2022/10/12 10:40:02;;;;;;;12.68;2.97;;;;;;;14.61;59.88;101902.69;4954143;28;20180;-80
2022/10/12 10:42:31;;;;;;;9.63;2.88;;;;;;;14.76;58.68;101901.81;4960827;28;20052;-80
2022/10/12 10:45:07;;;;;;;10.88;2.90;;;;;;;14.90;58.61;101901.91;4976684;28;20049;-82
2022/10/12 10:47:45;;;;;;;9.70;2.13;;;;;;;15.07;57.57;101906.22;4978550;28;21309;-83
2022/10/12 10:50:34;;;;;;;10.60;2.63;;;;;;;15.23;57.28;101897.41;4973032;28;20112;-81
2022/10/12 10:53:23;;;;;;;8.95;2.38;;;;;;;15.35;55.89;101897.50;4961964;28;20050;-81
2022/10/12 10:56:07;;;;;;;11.48;2.45;;;;;;;15.44;55.54;101896.13;4987158;28;20046;-80
2022/10/12 10:58:44;;;;;;;20.73;3.20;;;;;;;15.44;55.41;101890.81;5009158;28;20045;-81
2022/10/12 11:01:22;;;;;;;13.20;2.65;;;;;;;15.45;55.83;101893.41;4976357;28;20056;-80
2022/10/12 11:04:03;;;;;;;9.90;2.75;;;;;;;15.40;55.95;101889.28;4974474;28;20061;-81
2022/10/12 11:06:39;;;;;;;8.93;2.35;;;;;;;15.58;55.84;101890.00;4987770;28;20058;-81
2022/10/12 11:09:43;;;;;;;20.00;3.17;;;;;;;15.84;55.71;101886.66;4972793;28;20056;-81
2022/10/12 11:12:23;;;;;;;6.75;2.20;;;;;;;16.06;55.22;101882.69;4977202;28;20041;-81
2022/10/12 11:15:18;;;;;;;10.48;2.28;;;;;;;16.32;53.74;101878.41;4982890;28;20065;-81
2022/10/12 11:17:48;;;;;;;7.80;2.10;;;;;;;16.52;52.87;101874.47;4967784;28;20064;-80
2022/10/12 11:20:37;;;;;;;10.30;2.53;;;;;;;16.75;52.73;101870.34;4987907;28;20049;-79
2022/10/12 11:23:16;;;;;;;7.40;2.00;;;;;;;16.99;52.17;101866.09;4974960;28;20041;-82
2022/10/12 11:26:00;;;;;;;14.88;3.22;;;;;;;17.21;51.32;101862.88;4982805;28;20053;-80
2022/10/12 11:28:30;;;;;;;13.52;2.45;;;;;;;17.21;50.54;101868.19;5006580;28;20484;-80
2022/10/12 11:31:10;;;;;;;9.90;2.22;;;;;;;17.26;49.73;101867.88;5005118;28;20043;-79
2022/10/12 11:33:43;;;;;;;8.60;1.73;;;;;;;17.45;49.46;101857.69;4957006;28;20046;-81
2022/10/12 11:36:19;;;;;;;12.00;2.60;;;;;;;17.65;49.32;101851.84;4986933;28;20050;-81
2022/10/12 11:39:20;;;;;;;11.15;3.20;;;;;;;18.01;48.44;101844.91;4985682;28;20050;-83
2022/10/12 11:41:54;;;;;;;9.07;2.15;;;;;;;18.18;47.60;101836.56;4989945;28;20053;-81
2022/10/12 11:44:45;;;;;;;11.77;2.30;;;;;;;18.59;46.80;101837.19;4965160;28;20041;-80
2022/10/12 11:47:16;;;;;;;8.98;2.40;;;;;;;19.03;46.96;101838.41;4969340;28;20057;-82
2022/10/12 11:49:54;;;;;;;7.07;1.88;;;;;;;19.40;45.71;101839.13;5005517;28;20069;-82
2022/10/12 11:52:24;;;;;;;7.80;2.38;;;;;;;19.74;44.66;101834.72;4970930;28;20536;-80
2022/10/12 11:55:22;;;;;;;12.32;2.22;;;;;;;20.06;45.15;101834.84;4968626;28;20053;-80
2022/10/12 11:57:50;;;;;;;7.13;2.20;;;;;;;20.26;43.52;101833.25;4987570;28;20201;-81